sensor_id;sensor_type;location;lat;lon;timestamp;P1;durP1;ratioP1;P2;durP2;ratioP2
70102;SDS011;57470;50.034;15.256;2022-08-30T00:00:51;4.10;;;1.20;;
70102;SDS011;57470;50.034;15.256;2022-08-30T00:03:52;3.95;;;1.00;;
70102;SDS011;57470;50.034;15.256;2022-08-30T00:06:19;3.90;;;1.05;;
70102;SDS011;57470;50.034;15.256;2022-08-30T00:08:46;5.95;;;1.75;;
70102;SDS011;57470;50.034;15.256;2022-08-30T00:11:16;3.60;;;0.70;;
70102;SDS011;57470;50.034;15.256;2022-08-30T00:13:44;6.13;;;1.63;;
70102;SDS011;57470;50.034;15.256;2022-08-30T00:16:10;4.55;;;1.10;;
70102;SDS011;57470;50.034;15.256;2022-08-30T00:18:37;7.82;;;1.20;;
70102;SDS011;57470;50.034;15.256;2022-08-30T00:21:04;5.68;;;2.03;;
70102;SDS011;57470;50.034;15.256;2022-08-30T00:23:30;5.03;;;1.47;;
70102;SDS011;57470;50.034;15.256;2022-08-30T00:25:56;6.22;;;1.52;;
70102;SDS011;57470;50.034;15.256;2022-08-30T00:28:22;3.42;;;1.02;;
70102;SDS011;57470;50.034;15.256;2022-08-30T00:30:48;6.65;;;1.30;;
70102;SDS011;57470;50.034;15.256;2022-08-30T00:33:14;4.53;;;1.10;;
70102;SDS011;57470;50.034;15.256;2022-08-30T00:35:40;6.07;;;1.73;;
70102;SDS011;57470;50.034;15.256;2022-08-30T00:38:07;4.38;;;1.20;;
70102;SDS011;57470;50.034;15.256;2022-08-30T00:40:33;9.43;;;2.22;;
70102;SDS011;57470;50.034;15.256;2022-08-30T00:42:59;6.17;;;1.23;;
70102;SDS011;57470;50.034;15.256;2022-08-30T00:45:29;5.30;;;2.05;;
70102;SDS011;57470;50.034;15.256;2022-08-30T00:47:57;4.13;;;1.55;;
70102;SDS011;57470;50.034;15.256;2022-08-30T00:50:24;6.82;;;1.33;;
70102;SDS011;57470;50.034;15.256;2022-08-30T00:52:55;3.50;;;0.97;;
70102;SDS011;57470;50.034;15.256;2022-08-30T00:55:24;4.32;;;1.17;;
70102;SDS011;57470;50.034;15.256;2022-08-30T00:57:51;4.43;;;1.23;;
70102;SDS011;57470;50.034;15.256;2022-08-30T01:00:20;4.47;;;1.23;;
70102;SDS011;57470;50.034;15.256;2022-08-30T01:02:46;6.95;;;1.17;;
70102;SDS011;57470;50.034;15.256;2022-08-30T01:05:12;3.57;;;1.00;;
70102;SDS011;57470;50.034;15.256;2022-08-30T01:07:40;4.03;;;1.40;;
70102;SDS011;57470;50.034;15.256;2022-08-30T01:10:06;8.98;;;1.90;;
70102;SDS011;57470;50.034;15.256;2022-08-30T01:12:34;5.10;;;1.45;;
70102;SDS011;57470;50.034;15.256;2022-08-30T01:15:01;4.22;;;1.20;;
70102;SDS011;57470;50.034;15.256;2022-08-30T01:17:29;5.23;;;1.27;;
70102;SDS011;57470;50.034;15.256;2022-08-30T01:19:56;8.75;;;1.42;;
70102;SDS011;57470;50.034;15.256;2022-08-30T01:25:16;2.80;;;0.60;;
70102;SDS011;57470;50.034;15.256;2022-08-30T01:27:54;4.53;;;1.40;;
70102;SDS011;57470;50.034;15.256;2022-08-30T01:30:25;7.72;;;1.83;;
70102;SDS011;57470;50.034;15.256;2022-08-30T01:32:54;4.38;;;1.35;;
70102;SDS011;57470;50.034;15.256;2022-08-30T01:35:23;5.10;;;1.35;;
70102;SDS011;57470;50.034;15.256;2022-08-30T01:37:49;4.77;;;1.67;;
70102;SDS011;57470;50.034;15.256;2022-08-30T01:40:16;4.72;;;1.20;;
70102;SDS011;57470;50.034;15.256;2022-08-30T01:42:43;3.88;;;1.48;;
70102;SDS011;57470;50.034;15.256;2022-08-30T01:45:11;4.72;;;1.80;;
70102;SDS011;57470;50.034;15.256;2022-08-30T01:47:38;6.32;;;2.03;;
70102;SDS011;57470;50.034;15.256;2022-08-30T01:50:05;5.33;;;1.47;;
70102;SDS011;57470;50.034;15.256;2022-08-30T01:52:33;5.25;;;1.15;;
70102;SDS011;57470;50.034;15.256;2022-08-30T01:55:00;3.85;;;1.13;;
70102;SDS011;57470;50.034;15.256;2022-08-30T01:57:28;4.68;;;1.50;;
70102;SDS011;57470;50.034;15.256;2022-08-30T01:59:53;4.60;;;1.33;;
70102;SDS011;57470;50.034;15.256;2022-08-30T02:02:21;4.72;;;1.52;;
70102;SDS011;57470;50.034;15.256;2022-08-30T02:04:49;4.55;;;1.33;;
70102;SDS011;57470;50.034;15.256;2022-08-30T02:07:15;7.30;;;1.83;;
70102;SDS011;57470;50.034;15.256;2022-08-30T02:09:41;4.47;;;1.40;;
70102;SDS011;57470;50.034;15.256;2022-08-30T02:12:06;3.97;;;1.20;;
70102;SDS011;57470;50.034;15.256;2022-08-30T02:14:36;4.82;;;1.42;;
70102;SDS011;57470;50.034;15.256;2022-08-30T02:17:02;4.60;;;1.30;;
70102;SDS011;57470;50.034;15.256;2022-08-30T02:19:29;5.03;;;1.15;;
70102;SDS011;57470;50.034;15.256;2022-08-30T02:21:55;5.40;;;1.53;;
70102;SDS011;57470;50.034;15.256;2022-08-30T02:24:21;4.13;;;1.27;;
70102;SDS011;57470;50.034;15.256;2022-08-30T02:26:46;5.30;;;1.47;;
70102;SDS011;57470;50.034;15.256;2022-08-30T02:29:13;3.72;;;1.08;;
70102;SDS011;57470;50.034;15.256;2022-08-30T02:31:38;4.20;;;1.13;;
70102;SDS011;57470;50.034;15.256;2022-08-30T02:34:04;4.30;;;1.53;;
70102;SDS011;57470;50.034;15.256;2022-08-30T02:36:29;5.17;;;1.03;;
70102;SDS011;57470;50.034;15.256;2022-08-30T02:38:55;4.43;;;1.23;;
70102;SDS011;57470;50.034;15.256;2022-08-30T02:41:20;4.03;;;1.05;;
70102;SDS011;57470;50.034;15.256;2022-08-30T02:43:47;3.90;;;1.00;;
70102;SDS011;57470;50.034;15.256;2022-08-30T02:46:13;4.90;;;2.10;;
70102;SDS011;57470;50.034;15.256;2022-08-30T02:48:40;4.20;;;1.25;;
70102;SDS011;57470;50.034;15.256;2022-08-30T02:51:07;6.57;;;1.30;;
70102;SDS011;57470;50.034;15.256;2022-08-30T02:53:35;5.10;;;1.30;;
70102;SDS011;57470;50.034;15.256;2022-08-30T02:56:00;4.80;;;1.52;;
70102;SDS011;57470;50.034;15.256;2022-08-30T02:58:26;3.50;;;0.93;;
70102;SDS011;57470;50.034;15.256;2022-08-30T03:00:51;4.17;;;1.13;;
70102;SDS011;57470;50.034;15.256;2022-08-30T03:03:17;4.07;;;1.17;;
70102;SDS011;57470;50.034;15.256;2022-08-30T03:05:42;4.68;;;1.55;;
70102;SDS011;57470;50.034;15.256;2022-08-30T03:08:08;4.53;;;1.47;;
70102;SDS011;57470;50.034;15.256;2022-08-30T03:10:34;3.23;;;0.77;;
70102;SDS011;57470;50.034;15.256;2022-08-30T03:13:00;4.18;;;1.30;;
70102;SDS011;57470;50.034;15.256;2022-08-30T03:15:25;4.53;;;1.50;;
70102;SDS011;57470;50.034;15.256;2022-08-30T03:17:52;7.65;;;1.45;;
70102;SDS011;57470;50.034;15.256;2022-08-30T03:20:18;6.07;;;2.13;;
70102;SDS011;57470;50.034;15.256;2022-08-30T03:22:45;6.93;;;1.52;;
70102;SDS011;57470;50.034;15.256;2022-08-30T03:25:11;4.93;;;1.40;;
70102;SDS011;57470;50.034;15.256;2022-08-30T03:27:36;6.03;;;1.83;;
70102;SDS011;57470;50.034;15.256;2022-08-30T03:30:03;4.82;;;1.40;;
70102;SDS011;57470;50.034;15.256;2022-08-30T03:32:29;4.28;;;1.42;;
70102;SDS011;57470;50.034;15.256;2022-08-30T03:34:55;5.43;;;1.60;;
70102;SDS011;57470;50.034;15.256;2022-08-30T03:37:20;6.90;;;2.20;;
70102;SDS011;57470;50.034;15.256;2022-08-30T03:39:45;5.55;;;1.73;;
70102;SDS011;57470;50.034;15.256;2022-08-30T03:42:11;5.03;;;1.37;;
70102;SDS011;57470;50.034;15.256;2022-08-30T03:44:37;5.80;;;1.58;;
70102;SDS011;57470;50.034;15.256;2022-08-30T03:47:03;4.43;;;1.23;;
70102;SDS011;57470;50.034;15.256;2022-08-30T03:49:29;5.82;;;2.08;;
70102;SDS011;57470;50.034;15.256;2022-08-30T03:51:55;7.03;;;1.95;;
70102;SDS011;57470;50.034;15.256;2022-08-30T03:54:21;4.97;;;1.23;;
70102;SDS011;57470;50.034;15.256;2022-08-30T03:56:47;7.38;;;1.55;;
70102;SDS011;57470;50.034;15.256;2022-08-30T03:59:13;4.90;;;2.00;;
70102;SDS011;57470;50.034;15.256;2022-08-30T04:01:39;5.15;;;1.85;;
70102;SDS011;57470;50.034;15.256;2022-08-30T04:04:05;4.90;;;1.98;;
70102;SDS011;57470;50.034;15.256;2022-08-30T04:06:31;5.30;;;1.50;;
70102;SDS011;57470;50.034;15.256;2022-08-30T04:08:57;4.78;;;1.50;;
70102;SDS011;57470;50.034;15.256;2022-08-30T04:11:22;4.60;;;1.50;;
70102;SDS011;57470;50.034;15.256;2022-08-30T04:13:48;4.93;;;1.30;;
70102;SDS011;57470;50.034;15.256;2022-08-30T04:16:15;5.57;;;1.48;;
70102;SDS011;57470;50.034;15.256;2022-08-30T04:18:42;4.93;;;1.58;;
70102;SDS011;57470;50.034;15.256;2022-08-30T04:21:07;5.03;;;1.50;;
70102;SDS011;57470;50.034;15.256;2022-08-30T04:23:33;5.10;;;1.53;;
70102;SDS011;57470;50.034;15.256;2022-08-30T04:25:58;4.13;;;1.33;;
70102;SDS011;57470;50.034;15.256;2022-08-30T04:28:24;3.83;;;1.43;;
70102;SDS011;57470;50.034;15.256;2022-08-30T04:30:49;5.47;;;1.17;;
70102;SDS011;57470;50.034;15.256;2022-08-30T04:33:15;4.17;;;1.03;;
70102;SDS011;57470;50.034;15.256;2022-08-30T04:35:42;5.43;;;1.40;;
70102;SDS011;57470;50.034;15.256;2022-08-30T04:38:09;4.53;;;1.40;;
70102;SDS011;57470;50.034;15.256;2022-08-30T04:40:35;6.10;;;1.70;;
70102;SDS011;57470;50.034;15.256;2022-08-30T04:43:01;5.85;;;1.60;;
70102;SDS011;57470;50.034;15.256;2022-08-30T04:45:27;4.40;;;1.67;;
70102;SDS011;57470;50.034;15.256;2022-08-30T04:47:52;8.80;;;1.20;;
70102;SDS011;57470;50.034;15.256;2022-08-30T04:50:18;4.07;;;1.50;;
70102;SDS011;57470;50.034;15.256;2022-08-30T04:52:44;3.78;;;1.17;;
70102;SDS011;57470;50.034;15.256;2022-08-30T04:55:11;4.17;;;1.43;;
70102;SDS011;57470;50.034;15.256;2022-08-30T04:57:37;6.05;;;1.55;;
70102;SDS011;57470;50.034;15.256;2022-08-30T05:00:05;4.60;;;1.40;;
70102;SDS011;57470;50.034;15.256;2022-08-30T05:02:34;4.03;;;1.17;;
70102;SDS011;57470;50.034;15.256;2022-08-30T05:05:00;4.47;;;1.27;;
70102;SDS011;57470;50.034;15.256;2022-08-30T05:07:45;3.28;;;0.82;;
70102;SDS011;57470;50.034;15.256;2022-08-30T05:10:10;4.87;;;1.40;;
70102;SDS011;57470;50.034;15.256;2022-08-30T05:12:36;4.23;;;1.30;;
70102;SDS011;57470;50.034;15.256;2022-08-30T05:15:01;4.87;;;1.63;;
70102;SDS011;57470;50.034;15.256;2022-08-30T05:17:27;6.15;;;2.08;;
70102;SDS011;57470;50.034;15.256;2022-08-30T05:19:52;5.53;;;1.63;;
70102;SDS011;57470;50.034;15.256;2022-08-30T05:22:18;5.40;;;1.57;;
70102;SDS011;57470;50.034;15.256;2022-08-30T05:24:43;4.87;;;1.70;;
70102;SDS011;57470;50.034;15.256;2022-08-30T05:27:08;8.20;;;2.00;;
70102;SDS011;57470;50.034;15.256;2022-08-30T05:29:34;4.50;;;1.60;;
70102;SDS011;57470;50.034;15.256;2022-08-30T05:31:59;5.17;;;2.07;;
70102;SDS011;57470;50.034;15.256;2022-08-30T05:34:25;6.17;;;1.90;;
70102;SDS011;57470;50.034;15.256;2022-08-30T05:36:53;9.10;;;2.03;;
70102;SDS011;57470;50.034;15.256;2022-08-30T05:39:18;6.43;;;1.67;;
70102;SDS011;57470;50.034;15.256;2022-08-30T05:41:43;6.23;;;2.57;;
70102;SDS011;57470;50.034;15.256;2022-08-30T05:44:09;9.77;;;2.40;;
70102;SDS011;57470;50.034;15.256;2022-08-30T05:46:35;8.38;;;2.20;;
70102;SDS011;57470;50.034;15.256;2022-08-30T05:49:01;4.72;;;1.70;;
70102;SDS011;57470;50.034;15.256;2022-08-30T05:51:29;4.80;;;1.50;;
70102;SDS011;57470;50.034;15.256;2022-08-30T05:53:57;5.65;;;2.13;;
70102;SDS011;57470;50.034;15.256;2022-08-30T05:56:27;7.70;;;2.78;;
70102;SDS011;57470;50.034;15.256;2022-08-30T05:58:56;9.80;;;2.92;;
70102;SDS011;57470;50.034;15.256;2022-08-30T06:01:23;5.35;;;2.08;;
70102;SDS011;57470;50.034;15.256;2022-08-30T06:03:52;5.23;;;1.93;;
70102;SDS011;57470;50.034;15.256;2022-08-30T06:06:18;6.13;;;2.10;;
70102;SDS011;57470;50.034;15.256;2022-08-30T06:08:44;8.65;;;2.58;;
70102;SDS011;57470;50.034;15.256;2022-08-30T06:11:12;7.30;;;2.40;;
70102;SDS011;57470;50.034;15.256;2022-08-30T06:13:38;4.47;;;1.57;;
70102;SDS011;57470;50.034;15.256;2022-08-30T06:16:04;4.93;;;2.05;;
70102;SDS011;57470;50.034;15.256;2022-08-30T06:18:30;6.05;;;2.30;;
70102;SDS011;57470;50.034;15.256;2022-08-30T06:20:55;5.90;;;2.47;;
70102;SDS011;57470;50.034;15.256;2022-08-30T06:23:20;15.07;;;1.90;;
70102;SDS011;57470;50.034;15.256;2022-08-30T06:25:46;6.05;;;1.88;;
70102;SDS011;57470;50.034;15.256;2022-08-30T06:28:12;5.63;;;1.67;;
70102;SDS011;57470;50.034;15.256;2022-08-30T06:30:38;5.87;;;2.10;;
70102;SDS011;57470;50.034;15.256;2022-08-30T06:33:06;5.65;;;1.90;;
70102;SDS011;57470;50.034;15.256;2022-08-30T06:35:33;5.72;;;1.90;;
70102;SDS011;57470;50.034;15.256;2022-08-30T06:37:58;5.93;;;1.70;;
70102;SDS011;57470;50.034;15.256;2022-08-30T06:40:23;8.53;;;3.70;;
70102;SDS011;57470;50.034;15.256;2022-08-30T06:42:49;7.47;;;2.33;;
70102;SDS011;57470;50.034;15.256;2022-08-30T06:45:15;5.63;;;2.00;;
70102;SDS011;57470;50.034;15.256;2022-08-30T06:47:42;8.68;;;2.50;;
70102;SDS011;57470;50.034;15.256;2022-08-30T06:50:08;7.78;;;2.70;;
70102;SDS011;57470;50.034;15.256;2022-08-30T06:52:35;10.00;;;2.53;;
70102;SDS011;57470;50.034;15.256;2022-08-30T06:55:01;7.07;;;2.70;;
70102;SDS011;57470;50.034;15.256;2022-08-30T06:57:27;7.87;;;3.43;;
70102;SDS011;57470;50.034;15.256;2022-08-30T06:59:55;5.97;;;2.35;;
70102;SDS011;57470;50.034;15.256;2022-08-30T07:02:21;10.83;;;3.17;;
70102;SDS011;57470;50.034;15.256;2022-08-30T07:04:47;7.55;;;2.78;;
70102;SDS011;57470;50.034;15.256;2022-08-30T07:07:12;7.83;;;3.47;;
70102;SDS011;57470;50.034;15.256;2022-08-30T07:09:39;9.15;;;3.15;;
70102;SDS011;57470;50.034;15.256;2022-08-30T07:12:07;9.13;;;2.80;;
70102;SDS011;57470;50.034;15.256;2022-08-30T07:14:33;6.20;;;2.20;;
70102;SDS011;57470;50.034;15.256;2022-08-30T07:16:59;6.30;;;2.25;;
70102;SDS011;57470;50.034;15.256;2022-08-30T07:19:25;9.67;;;2.70;;
70102;SDS011;57470;50.034;15.256;2022-08-30T07:21:50;5.80;;;2.50;;
70102;SDS011;57470;50.034;15.256;2022-08-30T07:24:16;12.13;;;3.00;;
70102;SDS011;57470;50.034;15.256;2022-08-30T07:26:43;7.18;;;2.30;;
70102;SDS011;57470;50.034;15.256;2022-08-30T07:29:13;6.63;;;3.30;;
70102;SDS011;57470;50.034;15.256;2022-08-30T07:31:39;7.05;;;2.55;;
70102;SDS011;57470;50.034;15.256;2022-08-30T07:34:05;6.32;;;2.40;;
70102;SDS011;57470;50.034;15.256;2022-08-30T07:36:32;6.67;;;2.03;;
70102;SDS011;57470;50.034;15.256;2022-08-30T07:38:57;10.20;;;2.45;;
70102;SDS011;57470;50.034;15.256;2022-08-30T07:41:27;8.32;;;2.35;;
70102;SDS011;57470;50.034;15.256;2022-08-30T07:43:58;8.80;;;2.73;;
70102;SDS011;57470;50.034;15.256;2022-08-30T07:46:24;9.45;;;3.17;;
70102;SDS011;57470;50.034;15.256;2022-08-30T07:48:50;10.15;;;2.80;;
70102;SDS011;57470;50.034;15.256;2022-08-30T07:51:19;6.73;;;3.40;;
70102;SDS011;57470;50.034;15.256;2022-08-30T07:53:47;8.77;;;2.55;;
70102;SDS011;57470;50.034;15.256;2022-08-30T07:56:12;9.70;;;3.07;;
70102;SDS011;57470;50.034;15.256;2022-08-30T07:58:38;8.73;;;3.10;;
70102;SDS011;57470;50.034;15.256;2022-08-30T08:01:08;6.90;;;2.00;;
70102;SDS011;57470;50.034;15.256;2022-08-30T08:03:35;5.43;;;2.22;;
70102;SDS011;57470;50.034;15.256;2022-08-30T08:06:01;10.10;;;3.28;;
70102;SDS011;57470;50.034;15.256;2022-08-30T08:08:28;6.33;;;2.67;;
70102;SDS011;57470;50.034;15.256;2022-08-30T08:10:54;7.60;;;2.95;;
70102;SDS011;57470;50.034;15.256;2022-08-30T08:13:19;7.80;;;2.40;;
70102;SDS011;57470;50.034;15.256;2022-08-30T08:15:45;6.73;;;2.37;;
70102;SDS011;57470;50.034;15.256;2022-08-30T08:18:10;5.47;;;2.08;;
70102;SDS011;57470;50.034;15.256;2022-08-30T08:20:36;6.37;;;2.27;;
70102;SDS011;57470;50.034;15.256;2022-08-30T08:23:02;10.18;;;2.88;;
70102;SDS011;57470;50.034;15.256;2022-08-30T08:25:28;8.27;;;2.77;;
70102;SDS011;57470;50.034;15.256;2022-08-30T08:27:53;7.63;;;3.25;;
70102;SDS011;57470;50.034;15.256;2022-08-30T08:30:20;8.63;;;3.38;;
70102;SDS011;57470;50.034;15.256;2022-08-30T08:32:47;8.73;;;2.53;;
70102;SDS011;57470;50.034;15.256;2022-08-30T08:35:13;8.87;;;2.60;;
70102;SDS011;57470;50.034;15.256;2022-08-30T08:37:40;9.00;;;2.45;;
70102;SDS011;57470;50.034;15.256;2022-08-30T08:40:06;5.70;;;1.87;;
70102;SDS011;57470;50.034;15.256;2022-08-30T08:48:07;6.65;;;2.63;;
70102;SDS011;57470;50.034;15.256;2022-08-30T08:50:45;6.43;;;2.40;;
70102;SDS011;57470;50.034;15.256;2022-08-30T08:53:32;5.43;;;2.20;;
70102;SDS011;57470;50.034;15.256;2022-08-30T08:55:59;8.43;;;2.38;;
70102;SDS011;57470;50.034;15.256;2022-08-30T08:58:28;6.35;;;2.35;;
70102;SDS011;57470;50.034;15.256;2022-08-30T09:00:56;7.07;;;2.15;;
70102;SDS011;57470;50.034;15.256;2022-08-30T09:03:24;6.05;;;2.30;;
70102;SDS011;57470;50.034;15.256;2022-08-30T09:05:51;7.27;;;2.33;;
70102;SDS011;57470;50.034;15.256;2022-08-30T09:08:19;11.68;;;2.13;;
70102;SDS011;57470;50.034;15.256;2022-08-30T09:10:52;5.93;;;2.55;;
70102;SDS011;57470;50.034;15.256;2022-08-30T09:13:21;6.70;;;1.85;;
70102;SDS011;57470;50.034;15.256;2022-08-30T09:15:49;9.02;;;2.97;;
70102;SDS011;57470;50.034;15.256;2022-08-30T09:18:16;7.23;;;2.40;;
70102;SDS011;57470;50.034;15.256;2022-08-30T09:20:43;6.95;;;2.47;;
70102;SDS011;57470;50.034;15.256;2022-08-30T09:25:42;8.07;;;2.00;;
70102;SDS011;57470;50.034;15.256;2022-08-30T09:28:29;5.90;;;2.30;;
70102;SDS011;57470;50.034;15.256;2022-08-30T09:30:59;6.82;;;3.20;;
70102;SDS011;57470;50.034;15.256;2022-08-30T09:33:28;5.43;;;1.98;;
70102;SDS011;57470;50.034;15.256;2022-08-30T09:35:54;6.75;;;2.10;;
70102;SDS011;57470;50.034;15.256;2022-08-30T09:38:21;7.40;;;2.80;;
70102;SDS011;57470;50.034;15.256;2022-08-30T09:40:51;7.90;;;2.53;;
70102;SDS011;57470;50.034;15.256;2022-08-30T09:43:24;6.68;;;2.63;;
70102;SDS011;57470;50.034;15.256;2022-08-30T10:05:30;6.05;;;3.25;;
70102;SDS011;57470;50.034;15.256;2022-08-30T10:08:17;6.60;;;2.65;;
70102;SDS011;57470;50.034;15.256;2022-08-30T10:10:50;8.67;;;3.10;;
70102;SDS011;57470;50.034;15.256;2022-08-30T10:21:37;4.93;;;1.42;;
70102;SDS011;57470;50.034;15.256;2022-08-30T10:24:11;6.80;;;2.17;;
70102;SDS011;57470;50.034;15.256;2022-08-30T10:26:44;8.73;;;2.27;;
70102;SDS011;57470;50.034;15.256;2022-08-30T10:29:30;6.43;;;1.98;;
70102;SDS011;57470;50.034;15.256;2022-08-30T10:37:34;4.80;;;1.42;;
70102;SDS011;57470;50.034;15.256;2022-08-30T10:40:07;7.37;;;1.97;;
70102;SDS011;57470;50.034;15.256;2022-08-30T10:42:56;5.55;;;1.52;;
70102;SDS011;57470;50.034;15.256;2022-08-30T10:45:25;6.07;;;2.42;;
70102;SDS011;57470;50.034;15.256;2022-08-30T10:47:57;8.52;;;1.98;;
70102;SDS011;57470;50.034;15.256;2022-08-30T10:50:28;5.38;;;2.05;;
70102;SDS011;57470;50.034;15.256;2022-08-30T10:56:34;5.40;;;2.22;;
70102;SDS011;57470;50.034;15.256;2022-08-30T10:58:38;8.15;;;2.72;;
70102;SDS011;57470;50.034;15.256;2022-08-30T11:12:22;5.30;;;2.13;;
70102;SDS011;57470;50.034;15.256;2022-08-30T11:14:49;7.28;;;2.15;;
70102;SDS011;57470;50.034;15.256;2022-08-30T11:17:24;7.68;;;2.25;;
70102;SDS011;57470;50.034;15.256;2022-08-30T11:19:52;5.80;;;2.20;;
70102;SDS011;57470;50.034;15.256;2022-08-30T11:25:13;9.13;;;2.00;;
70102;SDS011;57470;50.034;15.256;2022-08-30T11:35:52;5.40;;;1.92;;
70102;SDS011;57470;50.034;15.256;2022-08-30T11:38:19;8.93;;;2.57;;
70102;SDS011;57470;50.034;15.256;2022-08-30T11:41:07;5.63;;;2.03;;
70102;SDS011;57470;50.034;15.256;2022-08-30T11:59:44;5.55;;;2.15;;
70102;SDS011;57470;50.034;15.256;2022-08-30T12:05:07;5.18;;;2.20;;
70102;SDS011;57470;50.034;15.256;2022-08-30T12:08:07;5.83;;;2.13;;
70102;SDS011;57470;50.034;15.256;2022-08-30T12:10:40;6.35;;;2.03;;
70102;SDS011;57470;50.034;15.256;2022-08-30T12:13:08;6.47;;;2.03;;
70102;SDS011;57470;50.034;15.256;2022-08-30T12:15:51;7.25;;;2.05;;
70102;SDS011;57470;50.034;15.256;2022-08-30T12:18:23;5.60;;;2.25;;
70102;SDS011;57470;50.034;15.256;2022-08-30T12:21:28;7.17;;;1.97;;
70102;SDS011;57470;50.034;15.256;2022-08-30T12:26:36;6.57;;;1.80;;
70102;SDS011;57470;50.034;15.256;2022-08-30T12:29:25;5.68;;;2.05;;
70102;SDS011;57470;50.034;15.256;2022-08-30T12:31:52;6.60;;;1.90;;
70102;SDS011;57470;50.034;15.256;2022-08-30T12:34:28;6.70;;;1.80;;
70102;SDS011;57470;50.034;15.256;2022-08-30T12:37:00;5.75;;;2.00;;
70102;SDS011;57470;50.034;15.256;2022-08-30T12:42:18;5.72;;;1.92;;
70102;SDS011;57470;50.034;15.256;2022-08-30T12:44:45;6.90;;;2.47;;
70102;SDS011;57470;50.034;15.256;2022-08-30T12:47:13;6.70;;;2.27;;
70102;SDS011;57470;50.034;15.256;2022-08-30T12:49:44;5.68;;;2.53;;
70102;SDS011;57470;50.034;15.256;2022-08-30T12:54:55;8.88;;;2.50;;
70102;SDS011;57470;50.034;15.256;2022-08-30T12:58:03;5.68;;;2.30;;
70102;SDS011;57470;50.034;15.256;2022-08-30T13:00:39;6.33;;;2.17;;
70102;SDS011;57470;50.034;15.256;2022-08-30T13:05:46;4.45;;;1.40;;
70102;SDS011;57470;50.034;15.256;2022-08-30T13:08:14;5.27;;;2.40;;
70102;SDS011;57470;50.034;15.256;2022-08-30T13:13:33;5.43;;;2.17;;
70102;SDS011;57470;50.034;15.256;2022-08-30T13:16:21;5.40;;;1.95;;
70102;SDS011;57470;50.034;15.256;2022-08-30T13:18:53;6.05;;;2.35;;
70102;SDS011;57470;50.034;15.256;2022-08-30T13:21:52;4.60;;;2.07;;
70102;SDS011;57470;50.034;15.256;2022-08-30T13:24:19;5.68;;;1.95;;
70102;SDS011;57470;50.034;15.256;2022-08-30T13:26:45;4.93;;;1.92;;
70102;SDS011;57470;50.034;15.256;2022-08-30T13:29:19;5.23;;;2.10;;
70102;SDS011;57470;50.034;15.256;2022-08-30T13:31:47;7.55;;;2.85;;
70102;SDS011;57470;50.034;15.256;2022-08-30T13:34:13;5.13;;;1.87;;
70102;SDS011;57470;50.034;15.256;2022-08-30T13:36:40;5.57;;;1.80;;
70102;SDS011;57470;50.034;15.256;2022-08-30T13:39:13;4.73;;;2.10;;
70102;SDS011;57470;50.034;15.256;2022-08-30T13:41:38;6.80;;;2.35;;
70102;SDS011;57470;50.034;15.256;2022-08-30T13:44:04;5.37;;;2.37;;
70102;SDS011;57470;50.034;15.256;2022-08-30T13:46:30;4.78;;;1.67;;
70102;SDS011;57470;50.034;15.256;2022-08-30T13:49:00;4.63;;;1.70;;
70102;SDS011;57470;50.034;15.256;2022-08-30T13:51:29;4.82;;;2.15;;
70102;SDS011;57470;50.034;15.256;2022-08-30T13:53:54;5.20;;;2.30;;
70102;SDS011;57470;50.034;15.256;2022-08-30T13:56:19;5.03;;;1.77;;
70102;SDS011;57470;50.034;15.256;2022-08-30T13:58:45;5.75;;;1.88;;
70102;SDS011;57470;50.034;15.256;2022-08-30T14:01:11;4.47;;;1.77;;
70102;SDS011;57470;50.034;15.256;2022-08-30T14:03:36;6.57;;;2.20;;
70102;SDS011;57470;50.034;15.256;2022-08-30T14:06:01;6.70;;;2.30;;
70102;SDS011;57470;50.034;15.256;2022-08-30T14:08:28;4.13;;;1.83;;
70102;SDS011;57470;50.034;15.256;2022-08-30T14:10:55;3.83;;;1.40;;
70102;SDS011;57470;50.034;15.256;2022-08-30T14:13:22;4.63;;;2.22;;
70102;SDS011;57470;50.034;15.256;2022-08-30T14:15:49;7.70;;;2.08;;
70102;SDS011;57470;50.034;15.256;2022-08-30T14:18:15;8.03;;;2.40;;
70102;SDS011;57470;50.034;15.256;2022-08-30T14:20:40;4.97;;;2.23;;
70102;SDS011;57470;50.034;15.256;2022-08-30T14:23:06;8.67;;;2.23;;
70102;SDS011;57470;50.034;15.256;2022-08-30T14:25:32;5.50;;;2.43;;
70102;SDS011;57470;50.034;15.256;2022-08-30T14:27:58;4.72;;;1.30;;
70102;SDS011;57470;50.034;15.256;2022-08-30T14:30:23;5.90;;;1.97;;
70102;SDS011;57470;50.034;15.256;2022-08-30T14:32:49;4.53;;;1.87;;
70102;SDS011;57470;50.034;15.256;2022-08-30T14:35:14;10.73;;;1.80;;
70102;SDS011;57470;50.034;15.256;2022-08-30T14:37:42;6.82;;;1.63;;
70102;SDS011;57470;50.034;15.256;2022-08-30T14:40:09;5.23;;;2.20;;
70102;SDS011;57470;50.034;15.256;2022-08-30T14:42:34;4.40;;;1.80;;
70102;SDS011;57470;50.034;15.256;2022-08-30T14:45:00;6.33;;;1.83;;
70102;SDS011;57470;50.034;15.256;2022-08-30T14:47:25;3.90;;;1.30;;
70102;SDS011;57470;50.034;15.256;2022-08-30T14:49:50;5.60;;;2.23;;
70102;SDS011;57470;50.034;15.256;2022-08-30T14:52:17;6.07;;;1.67;;
70102;SDS011;57470;50.034;15.256;2022-08-30T14:54:43;4.70;;;2.03;;
70102;SDS011;57470;50.034;15.256;2022-08-30T14:57:08;4.95;;;1.95;;
70102;SDS011;57470;50.034;15.256;2022-08-30T14:59:34;4.63;;;1.60;;
70102;SDS011;57470;50.034;15.256;2022-08-30T15:01:59;5.40;;;1.07;;
70102;SDS011;57470;50.034;15.256;2022-08-30T15:04:24;4.07;;;1.57;;
70102;SDS011;57470;50.034;15.256;2022-08-30T15:06:50;4.80;;;1.95;;
70102;SDS011;57470;50.034;15.256;2022-08-30T15:09:17;5.00;;;1.83;;
70102;SDS011;57470;50.034;15.256;2022-08-30T15:11:45;6.72;;;2.33;;
70102;SDS011;57470;50.034;15.256;2022-08-30T15:14:11;5.40;;;1.47;;
70102;SDS011;57470;50.034;15.256;2022-08-30T15:16:36;4.70;;;1.85;;
70102;SDS011;57470;50.034;15.256;2022-08-30T15:19:04;4.23;;;1.50;;
70102;SDS011;57470;50.034;15.256;2022-08-30T15:21:32;4.63;;;1.73;;
70102;SDS011;57470;50.034;15.256;2022-08-30T15:24:00;5.43;;;2.15;;
70102;SDS011;57470;50.034;15.256;2022-08-30T15:26:27;5.75;;;1.65;;
70102;SDS011;57470;50.034;15.256;2022-08-30T15:28:53;4.87;;;1.60;;
70102;SDS011;57470;50.034;15.256;2022-08-30T15:31:19;5.70;;;1.90;;
70102;SDS011;57470;50.034;15.256;2022-08-30T15:33:46;7.15;;;2.20;;
70102;SDS011;57470;50.034;15.256;2022-08-30T15:36:12;9.03;;;2.77;;
70102;SDS011;57470;50.034;15.256;2022-08-30T15:38:38;4.68;;;1.50;;
70102;SDS011;57470;50.034;15.256;2022-08-30T15:41:05;5.63;;;1.43;;
70102;SDS011;57470;50.034;15.256;2022-08-30T15:43:32;4.95;;;2.22;;
70102;SDS011;57470;50.034;15.256;2022-08-30T15:46:09;5.03;;;1.83;;
70102;SDS011;57470;50.034;15.256;2022-08-30T15:48:44;4.50;;;1.60;;
70102;SDS011;57470;50.034;15.256;2022-08-30T15:51:10;6.22;;;2.35;;
70102;SDS011;57470;50.034;15.256;2022-08-30T15:53:36;7.03;;;2.50;;
70102;SDS011;57470;50.034;15.256;2022-08-30T15:56:02;6.28;;;2.15;;
70102;SDS011;57470;50.034;15.256;2022-08-30T15:58:28;5.00;;;2.37;;
70102;SDS011;57470;50.034;15.256;2022-08-30T16:00:53;5.28;;;1.85;;
70102;SDS011;57470;50.034;15.256;2022-08-30T16:03:18;4.50;;;1.67;;
70102;SDS011;57470;50.034;15.256;2022-08-30T16:05:44;6.23;;;1.63;;
70102;SDS011;57470;50.034;15.256;2022-08-30T16:08:09;5.13;;;1.50;;
70102;SDS011;57470;50.034;15.256;2022-08-30T16:10:37;5.00;;;1.77;;
70102;SDS011;57470;50.034;15.256;2022-08-30T16:13:06;5.22;;;2.05;;
70102;SDS011;57470;50.034;15.256;2022-08-30T16:15:31;4.60;;;2.00;;
70102;SDS011;57470;50.034;15.256;2022-08-30T16:17:57;6.97;;;2.47;;
70102;SDS011;57470;50.034;15.256;2022-08-30T16:20:22;7.73;;;2.60;;